sensor_id;sensor_type;location;lat;lon;timestamp;P1;durP1;ratioP1;P2;durP2;ratioP2
57071;SDS011;42956;51.366;11.298;2022-12-18T08:51:11;52.63;;;23.02;;
57071;SDS011;42956;51.366;11.298;2022-12-18T08:53:39;65.63;;;28.08;;
57071;SDS011;42956;51.366;11.298;2022-12-18T08:56:08;53.13;;;23.48;;
57071;SDS011;42956;51.366;11.298;2022-12-18T08:58:36;59.95;;;26.67;;
57071;SDS011;42956;51.366;11.298;2022-12-18T09:01:05;47.83;;;23.20;;
57071;SDS011;42956;51.366;11.298;2022-12-18T09:03:33;47.75;;;21.38;;
57071;SDS011;42956;51.366;11.298;2022-12-18T09:06:01;42.53;;;20.52;;
57071;SDS011;42956;51.366;11.298;2022-12-18T09:08:31;57.17;;;21.27;;
57071;SDS011;42956;51.366;11.298;2022-12-18T09:10:59;49.33;;;22.02;;
57071;SDS011;42956;51.366;11.298;2022-12-18T09:13:27;66.13;;;22.63;;
57071;SDS011;42956;51.366;11.298;2022-12-18T09:15:55;53.70;;;22.33;;
57071;SDS011;42956;51.366;11.298;2022-12-18T09:18:23;58.70;;;22.38;;
57071;SDS011;42956;51.366;11.298;2022-12-18T09:20:51;58.55;;;23.63;;
57071;SDS011;42956;51.366;11.298;2022-12-18T09:23:19;49.28;;;22.10;;
57071;SDS011;42956;51.366;11.298;2022-12-18T09:25:49;48.03;;;21.23;;
57071;SDS011;42956;51.366;11.298;2022-12-18T09:28:17;41.83;;;20.52;;
57071;SDS011;42956;51.366;11.298;2022-12-18T09:30:47;43.92;;;20.15;;
57071;SDS011;42956;51.366;11.298;2022-12-18T09:33:16;51.25;;;21.13;;
57071;SDS011;42956;51.366;11.298;2022-12-18T09:35:45;43.10;;;20.02;;
57071;SDS011;42956;51.366;11.298;2022-12-18T09:38:14;43.17;;;22.08;;
57071;SDS011;42956;51.366;11.298;2022-12-18T09:40:43;52.08;;;22.92;;
57071;SDS011;42956;51.366;11.298;2022-12-18T09:43:14;43.65;;;21.10;;
57071;SDS011;42956;51.366;11.298;2022-12-18T09:45:43;49.55;;;22.15;;
57071;SDS011;42956;51.366;11.298;2022-12-18T09:48:14;47.33;;;20.10;;
57071;SDS011;42956;51.366;11.298;2022-12-18T09:50:43;49.33;;;20.35;;
57071;SDS011;42956;51.366;11.298;2022-12-18T09:53:13;52.15;;;24.70;;
57071;SDS011;42956;51.366;11.298;2022-12-18T09:55:43;57.40;;;24.75;;
57071;SDS011;42956;51.366;11.298;2022-12-18T09:58:15;39.72;;;21.15;;
57071;SDS011;42956;51.366;11.298;2022-12-18T10:00:45;55.13;;;24.57;;
57071;SDS011;42956;51.366;11.298;2022-12-18T10:03:13;50.25;;;25.77;;
57071;SDS011;42956;51.366;11.298;2022-12-18T10:05:44;49.53;;;25.98;;
57071;SDS011;42956;51.366;11.298;2022-12-18T10:08:16;51.33;;;25.75;;
57071;SDS011;42956;51.366;11.298;2022-12-18T10:10:47;57.25;;;26.40;;
57071;SDS011;42956;51.366;11.298;2022-12-18T10:13:20;50.97;;;23.08;;
57071;SDS011;42956;51.366;11.298;2022-12-18T10:16:06;44.67;;;22.70;;
57071;SDS011;42956;51.366;11.298;2022-12-18T10:18:39;45.90;;;23.48;;
57071;SDS011;42956;51.366;11.298;2022-12-18T10:21:12;51.22;;;23.55;;
57071;SDS011;42956;51.366;11.298;2022-12-18T10:23:45;51.77;;;23.43;;
57071;SDS011;42956;51.366;11.298;2022-12-18T10:26:15;48.83;;;22.83;;
57071;SDS011;42956;51.366;11.298;2022-12-18T10:28:45;44.22;;;22.65;;
57071;SDS011;42956;51.366;11.298;2022-12-18T10:31:14;44.03;;;21.75;;
57071;SDS011;42956;51.366;11.298;2022-12-18T10:33:43;49.55;;;22.85;;
57071;SDS011;42956;51.366;11.298;2022-12-18T10:36:12;44.72;;;21.58;;
57071;SDS011;42956;51.366;11.298;2022-12-18T10:38:40;46.20;;;21.70;;
57071;SDS011;42956;51.366;11.298;2022-12-18T10:41:23;46.72;;;22.23;;
57071;SDS011;42956;51.366;11.298;2022-12-18T10:49:17;49.28;;;23.42;;
57071;SDS011;42956;51.366;11.298;2022-12-18T10:51:45;55.67;;;26.23;;
57071;SDS011;42956;51.366;11.298;2022-12-18T10:54:14;74.63;;;31.52;;
57071;SDS011;42956;51.366;11.298;2022-12-18T10:56:44;71.97;;;29.10;;
57071;SDS011;42956;51.366;11.298;2022-12-18T10:59:13;69.85;;;29.92;;
57071;SDS011;42956;51.366;11.298;2022-12-18T11:01:45;65.57;;;29.55;;
57071;SDS011;42956;51.366;11.298;2022-12-18T11:04:17;57.95;;;27.00;;
57071;SDS011;42956;51.366;11.298;2022-12-18T11:06:56;55.60;;;26.30;;
57071;SDS011;42956;51.366;11.298;2022-12-18T11:09:25;65.88;;;28.48;;
57071;SDS011;42956;51.366;11.298;2022-12-18T11:11:54;55.35;;;30.10;;
57071;SDS011;42956;51.366;11.298;2022-12-18T11:14:24;58.88;;;26.27;;
57071;SDS011;42956;51.366;11.298;2022-12-18T11:16:53;61.92;;;27.13;;
57071;SDS011;42956;51.366;11.298;2022-12-18T11:19:43;55.90;;;29.33;;
57071;SDS011;42956;51.366;11.298;2022-12-18T11:22:18;54.83;;;27.08;;
57071;SDS011;42956;51.366;11.298;2022-12-18T11:24:52;56.30;;;25.45;;
57071;SDS011;42956;51.366;11.298;2022-12-18T11:27:40;54.15;;;25.10;;
57071;SDS011;42956;51.366;11.298;2022-12-18T11:30:09;50.53;;;24.27;;
57071;SDS011;42956;51.366;11.298;2022-12-18T11:32:37;46.00;;;23.60;;
57071;SDS011;42956;51.366;11.298;2022-12-18T11:35:13;55.22;;;24.13;;
57071;SDS011;42956;51.366;11.298;2022-12-18T11:37:42;48.70;;;23.60;;
57071;SDS011;42956;51.366;11.298;2022-12-18T11:40:12;50.30;;;22.73;;
57071;SDS011;42956;51.366;11.298;2022-12-18T11:42:44;46.20;;;22.90;;
57071;SDS011;42956;51.366;11.298;2022-12-18T11:45:20;47.60;;;23.48;;
57071;SDS011;42956;51.366;11.298;2022-12-18T11:47:52;53.60;;;25.23;;
57071;SDS011;42956;51.366;11.298;2022-12-18T11:50:24;52.65;;;24.98;;
57071;SDS011;42956;51.366;11.298;2022-12-18T11:52:53;50.90;;;24.25;;
57071;SDS011;42956;51.366;11.298;2022-12-18T11:55:28;46.90;;;24.58;;
57071;SDS011;42956;51.366;11.298;2022-12-18T11:58:01;45.40;;;23.75;;
57071;SDS011;42956;51.366;11.298;2022-12-18T12:00:31;47.63;;;22.83;;
57071;SDS011;42956;51.366;11.298;2022-12-18T12:03:18;47.15;;;22.58;;
57071;SDS011;42956;51.366;11.298;2022-12-18T12:05:54;55.08;;;26.05;;
57071;SDS011;42956;51.366;11.298;2022-12-18T12:08:27;46.58;;;21.55;;
57071;SDS011;42956;51.366;11.298;2022-12-18T12:11:01;44.35;;;23.83;;
57071;SDS011;42956;51.366;11.298;2022-12-18T12:13:38;47.97;;;21.83;;
57071;SDS011;42956;51.366;11.298;2022-12-18T12:16:11;45.17;;;21.08;;
57071;SDS011;42956;51.366;11.298;2022-12-18T12:18:46;43.28;;;22.65;;
57071;SDS011;42956;51.366;11.298;2022-12-18T12:21:20;49.65;;;22.70;;
57071;SDS011;42956;51.366;11.298;2022-12-18T12:23:52;44.85;;;22.17;;
57071;SDS011;42956;51.366;11.298;2022-12-18T12:26:22;46.47;;;23.52;;
57071;SDS011;42956;51.366;11.298;2022-12-18T12:29:05;57.10;;;26.38;;
57071;SDS011;42956;51.366;11.298;2022-12-18T12:31:48;63.78;;;31.95;;
57071;SDS011;42956;51.366;11.298;2022-12-18T12:34:20;79.88;;;32.28;;
57071;SDS011;42956;51.366;11.298;2022-12-18T12:36:57;72.78;;;32.05;;
57071;SDS011;42956;51.366;11.298;2022-12-18T12:39:29;60.35;;;28.67;;
57071;SDS011;42956;51.366;11.298;2022-12-18T12:41:58;68.03;;;30.73;;
57071;SDS011;42956;51.366;11.298;2022-12-18T12:44:45;54.22;;;25.42;;
57071;SDS011;42956;51.366;11.298;2022-12-18T12:47:22;44.63;;;25.20;;
57071;SDS011;42956;51.366;11.298;2022-12-18T12:49:53;38.47;;;21.13;;
57071;SDS011;42956;51.366;11.298;2022-12-18T12:52:26;48.08;;;22.52;;
57071;SDS011;42956;51.366;11.298;2022-12-18T12:54:56;36.80;;;20.00;;
57071;SDS011;42956;51.366;11.298;2022-12-18T12:57:30;41.20;;;20.88;;
57071;SDS011;42956;51.366;11.298;2022-12-18T12:59:59;42.88;;;20.67;;
57071;SDS011;42956;51.366;11.298;2022-12-18T13:02:30;43.72;;;22.15;;
57071;SDS011;42956;51.366;11.298;2022-12-18T13:05:02;43.95;;;21.33;;
57071;SDS011;42956;51.366;11.298;2022-12-18T13:07:34;37.53;;;19.33;;
57071;SDS011;42956;51.366;11.298;2022-12-18T13:10:11;42.38;;;20.67;;
57071;SDS011;42956;51.366;11.298;2022-12-18T13:12:51;53.13;;;24.40;;
57071;SDS011;42956;51.366;11.298;2022-12-18T13:18:04;36.92;;;19.90;;
57071;SDS011;42956;51.366;11.298;2022-12-18T13:20:32;47.28;;;21.98;;
57071;SDS011;42956;51.366;11.298;2022-12-18T13:23:03;49.38;;;24.63;;
57071;SDS011;42956;51.366;11.298;2022-12-18T13:25:48;55.00;;;23.85;;
57071;SDS011;42956;51.366;11.298;2022-12-18T13:28:16;39.72;;;22.10;;
57071;SDS011;42956;51.366;11.298;2022-12-18T13:30:46;51.08;;;23.65;;
57071;SDS011;42956;51.366;11.298;2022-12-18T13:33:36;40.88;;;21.63;;
57071;SDS011;42956;51.366;11.298;2022-12-18T13:36:28;48.05;;;21.85;;
57071;SDS011;42956;51.366;11.298;2022-12-18T13:41:50;45.35;;;21.48;;
57071;SDS011;42956;51.366;11.298;2022-12-18T13:44:26;55.90;;;25.08;;
57071;SDS011;42956;51.366;11.298;2022-12-18T13:47:00;50.88;;;24.05;;
57071;SDS011;42956;51.366;11.298;2022-12-18T13:49:31;51.95;;;24.77;;
57071;SDS011;42956;51.366;11.298;2022-12-18T13:52:14;50.70;;;24.67;;
57071;SDS011;42956;51.366;11.298;2022-12-18T13:54:43;47.53;;;22.92;;
57071;SDS011;42956;51.366;11.298;2022-12-18T13:57:25;58.40;;;25.30;;
57071;SDS011;42956;51.366;11.298;2022-12-18T13:59:54;52.45;;;23.63;;
57071;SDS011;42956;51.366;11.298;2022-12-18T14:02:24;77.13;;;33.17;;
57071;SDS011;42956;51.366;11.298;2022-12-18T14:04:53;66.65;;;29.02;;
57071;SDS011;42956;51.366;11.298;2022-12-18T14:07:22;80.00;;;38.17;;
57071;SDS011;42956;51.366;11.298;2022-12-18T14:09:52;77.95;;;39.13;;
57071;SDS011;42956;51.366;11.298;2022-12-18T14:12:39;78.35;;;39.47;;
57071;SDS011;42956;51.366;11.298;2022-12-18T14:15:30;77.65;;;35.90;;
57071;SDS011;42956;51.366;11.298;2022-12-18T14:18:01;74.80;;;35.50;;
57071;SDS011;42956;51.366;11.298;2022-12-18T14:20:31;80.72;;;37.75;;
57071;SDS011;42956;51.366;11.298;2022-12-18T14:22:59;90.28;;;41.65;;
57071;SDS011;42956;51.366;11.298;2022-12-18T14:25:28;91.50;;;38.97;;
57071;SDS011;42956;51.366;11.298;2022-12-18T14:28:07;71.93;;;37.50;;
57071;SDS011;42956;51.366;11.298;2022-12-18T14:30:37;81.38;;;35.50;;
57071;SDS011;42956;51.366;11.298;2022-12-18T14:33:08;79.85;;;37.67;;
57071;SDS011;42956;51.366;11.298;2022-12-18T14:35:38;77.55;;;34.20;;
57071;SDS011;42956;51.366;11.298;2022-12-18T14:38:22;67.65;;;29.17;;
57071;SDS011;42956;51.366;11.298;2022-12-18T14:40:57;73.72;;;32.40;;
57071;SDS011;42956;51.366;11.298;2022-12-18T14:43:27;64.20;;;31.38;;
57071;SDS011;42956;51.366;11.298;2022-12-18T14:45:56;61.25;;;29.13;;
57071;SDS011;42956;51.366;11.298;2022-12-18T14:48:31;49.20;;;26.27;;
57071;SDS011;42956;51.366;11.298;2022-12-18T14:51:01;46.20;;;23.48;;
57071;SDS011;42956;51.366;11.298;2022-12-18T14:53:34;49.70;;;24.02;;
57071;SDS011;42956;51.366;11.298;2022-12-18T14:56:03;48.33;;;25.20;;
57071;SDS011;42956;51.366;11.298;2022-12-18T14:58:39;71.57;;;32.95;;
57071;SDS011;42956;51.366;11.298;2022-12-18T15:01:17;83.55;;;38.42;;
57071;SDS011;42956;51.366;11.298;2022-12-18T15:03:45;67.97;;;35.05;;
57071;SDS011;42956;51.366;11.298;2022-12-18T15:06:17;68.28;;;33.67;;
57071;SDS011;42956;51.366;11.298;2022-12-18T15:08:45;74.47;;;35.22;;
57071;SDS011;42956;51.366;11.298;2022-12-18T15:11:27;76.95;;;35.65;;
57071;SDS011;42956;51.366;11.298;2022-12-18T15:13:58;76.20;;;33.63;;
57071;SDS011;42956;51.366;11.298;2022-12-18T15:16:27;79.28;;;33.55;;
57071;SDS011;42956;51.366;11.298;2022-12-18T15:18:55;86.70;;;41.92;;
57071;SDS011;42956;51.366;11.298;2022-12-18T15:21:23;91.65;;;42.05;;
57071;SDS011;42956;51.366;11.298;2022-12-18T15:23:51;84.78;;;42.75;;
57071;SDS011;42956;51.366;11.298;2022-12-18T15:26:20;94.47;;;42.67;;
57071;SDS011;42956;51.366;11.298;2022-12-18T15:28:49;87.75;;;40.85;;
57071;SDS011;42956;51.366;11.298;2022-12-18T15:31:33;76.97;;;40.10;;
57071;SDS011;42956;51.366;11.298;2022-12-18T15:34:12;79.63;;;37.00;;
57071;SDS011;42956;51.366;11.298;2022-12-18T15:36:40;81.13;;;39.08;;
57071;SDS011;42956;51.366;11.298;2022-12-18T15:39:10;89.18;;;40.17;;
57071;SDS011;42956;51.366;11.298;2022-12-18T15:41:39;76.20;;;35.20;;
57071;SDS011;42956;51.366;11.298;2022-12-18T15:44:27;74.25;;;37.35;;
57071;SDS011;42956;51.366;11.298;2022-12-18T15:46:55;73.35;;;36.85;;
57071;SDS011;42956;51.366;11.298;2022-12-18T15:49:23;87.85;;;38.65;;
57071;SDS011;42956;51.366;11.298;2022-12-18T15:51:52;69.40;;;32.70;;
57071;SDS011;42956;51.366;11.298;2022-12-18T15:54:21;62.95;;;32.42;;
57071;SDS011;42956;51.366;11.298;2022-12-18T15:57:10;64.47;;;32.63;;
57071;SDS011;42956;51.366;11.298;2022-12-18T15:59:50;72.03;;;32.25;;
57071;SDS011;42956;51.366;11.298;2022-12-18T16:02:20;65.00;;;31.73;;
57071;SDS011;42956;51.366;11.298;2022-12-18T16:04:50;59.55;;;28.75;;
57071;SDS011;42956;51.366;11.298;2022-12-18T16:07:19;63.92;;;29.63;;
57071;SDS011;42956;51.366;11.298;2022-12-18T16:09:52;79.35;;;34.92;;
57071;SDS011;42956;51.366;11.298;2022-12-18T16:12:23;75.05;;;34.70;;
57071;SDS011;42956;51.366;11.298;2022-12-18T16:14:51;59.08;;;30.33;;
57071;SDS011;42956;51.366;11.298;2022-12-18T16:17:21;52.17;;;25.60;;
57071;SDS011;42956;51.366;11.298;2022-12-18T16:19:49;48.65;;;26.33;;
57071;SDS011;42956;51.366;11.298;2022-12-18T16:22:20;60.55;;;27.98;;
57071;SDS011;42956;51.366;11.298;2022-12-18T16:24:49;56.38;;;25.38;;
57071;SDS011;42956;51.366;11.298;2022-12-18T16:27:17;55.58;;;28.52;;
57071;SDS011;42956;51.366;11.298;2022-12-18T16:29:45;60.67;;;28.60;;
57071;SDS011;42956;51.366;11.298;2022-12-18T16:32:14;66.05;;;28.67;;
57071;SDS011;42956;51.366;11.298;2022-12-18T16:34:44;71.57;;;32.72;;
57071;SDS011;42956;51.366;11.298;2022-12-18T16:37:14;75.35;;;35.42;;
57071;SDS011;42956;51.366;11.298;2022-12-18T16:39:43;79.53;;;38.38;;
57071;SDS011;42956;51.366;11.298;2022-12-18T16:42:12;61.33;;;30.55;;
57071;SDS011;42956;51.366;11.298;2022-12-18T16:44:43;58.00;;;29.63;;
57071;SDS011;42956;51.366;11.298;2022-12-18T16:47:11;53.90;;;27.92;;
57071;SDS011;42956;51.366;11.298;2022-12-18T16:49:41;51.83;;;25.20;;
57071;SDS011;42956;51.366;11.298;2022-12-18T16:52:12;53.20;;;25.98;;
57071;SDS011;42956;51.366;11.298;2022-12-18T16:54:40;49.80;;;24.02;;
57071;SDS011;42956;51.366;11.298;2022-12-18T16:57:08;45.92;;;23.10;;
57071;SDS011;42956;51.366;11.298;2022-12-18T16:59:36;46.72;;;24.88;;
57071;SDS011;42956;51.366;11.298;2022-12-18T17:02:04;49.78;;;23.23;;
57071;SDS011;42956;51.366;11.298;2022-12-18T17:04:33;48.63;;;25.40;;
57071;SDS011;42956;51.366;11.298;2022-12-18T17:07:01;50.05;;;24.05;;
57071;SDS011;42956;51.366;11.298;2022-12-18T17:09:31;50.28;;;25.52;;
57071;SDS011;42956;51.366;11.298;2022-12-18T17:11:59;45.63;;;23.33;;
57071;SDS011;42956;51.366;11.298;2022-12-18T17:14:30;79.18;;;38.17;;
57071;SDS011;42956;51.366;11.298;2022-12-18T17:16:58;72.55;;;32.88;;
57071;SDS011;42956;51.366;11.298;2022-12-18T17:19:46;48.45;;;23.20;;
57071;SDS011;42956;51.366;11.298;2022-12-18T17:22:14;44.53;;;22.15;;
57071;SDS011;42956;51.366;11.298;2022-12-18T17:24:44;44.70;;;22.88;;
57071;SDS011;42956;51.366;11.298;2022-12-18T17:27:12;42.78;;;21.65;;
57071;SDS011;42956;51.366;11.298;2022-12-18T17:29:40;50.90;;;23.50;;
57071;SDS011;42956;51.366;11.298;2022-12-18T17:32:14;62.88;;;30.98;;
57071;SDS011;42956;51.366;11.298;2022-12-18T17:34:42;50.38;;;26.67;;
57071;SDS011;42956;51.366;11.298;2022-12-18T17:37:10;55.08;;;28.35;;
57071;SDS011;42956;51.366;11.298;2022-12-18T17:39:38;72.20;;;33.00;;
57071;SDS011;42956;51.366;11.298;2022-12-18T17:42:07;47.25;;;24.30;;
57071;SDS011;42956;51.366;11.298;2022-12-18T17:44:41;47.90;;;22.05;;
57071;SDS011;42956;51.366;11.298;2022-12-18T17:47:10;51.53;;;24.42;;
57071;SDS011;42956;51.366;11.298;2022-12-18T17:49:38;41.13;;;23.42;;
57071;SDS011;42956;51.366;11.298;2022-12-18T17:52:07;51.50;;;24.30;;
57071;SDS011;42956;51.366;11.298;2022-12-18T17:54:35;52.40;;;24.73;;
57071;SDS011;42956;51.366;11.298;2022-12-18T17:57:05;46.42;;;24.23;;
57071;SDS011;42956;51.366;11.298;2022-12-18T17:59:34;54.45;;;24.10;;
57071;SDS011;42956;51.366;11.298;2022-12-18T18:02:03;49.17;;;25.58;;
57071;SDS011;42956;51.366;11.298;2022-12-18T18:04:32;58.55;;;27.20;;
57071;SDS011;42956;51.366;11.298;2022-12-18T18:07:00;63.03;;;30.60;;
57071;SDS011;42956;51.366;11.298;2022-12-18T18:09:28;45.63;;;24.48;;
57071;SDS011;42956;51.366;11.298;2022-12-18T18:11:56;56.47;;;26.13;;
57071;SDS011;42956;51.366;11.298;2022-12-18T18:14:44;71.35;;;33.72;;
57071;SDS011;42956;51.366;11.298;2022-12-18T18:17:13;68.15;;;34.10;;
57071;SDS011;42956;51.366;11.298;2022-12-18T18:19:41;61.40;;;29.40;;
57071;SDS011;42956;51.366;11.298;2022-12-18T18:22:14;66.53;;;32.97;;
57071;SDS011;42956;51.366;11.298;2022-12-18T18:24:44;59.83;;;32.60;;
57071;SDS011;42956;51.366;11.298;2022-12-18T18:27:12;64.55;;;33.58;;
57071;SDS011;42956;51.366;11.298;2022-12-18T18:29:40;58.30;;;27.33;;
57071;SDS011;42956;51.366;11.298;2022-12-18T18:32:10;50.22;;;25.20;;
57071;SDS011;42956;51.366;11.298;2022-12-18T18:34:39;49.67;;;24.92;;
57071;SDS011;42956;51.366;11.298;2022-12-18T18:37:07;52.55;;;25.75;;
57071;SDS011;42956;51.366;11.298;2022-12-18T18:39:36;43.38;;;22.50;;
57071;SDS011;42956;51.366;11.298;2022-12-18T18:42:05;51.67;;;27.23;;
57071;SDS011;42956;51.366;11.298;2022-12-18T18:44:33;44.88;;;22.55;;
57071;SDS011;42956;51.366;11.298;2022-12-18T18:47:02;48.60;;;22.02;;
57071;SDS011;42956;51.366;11.298;2022-12-18T18:49:36;59.22;;;30.45;;
57071;SDS011;42956;51.366;11.298;2022-12-18T18:52:04;79.13;;;34.17;;
57071;SDS011;42956;51.366;11.298;2022-12-18T18:54:34;80.32;;;37.45;;
57071;SDS011;42956;51.366;11.298;2022-12-18T18:57:02;65.40;;;33.33;;
57071;SDS011;42956;51.366;11.298;2022-12-18T18:59:46;66.43;;;31.83;;
57071;SDS011;42956;51.366;11.298;2022-12-18T19:02:14;78.75;;;38.20;;
57071;SDS011;42956;51.366;11.298;2022-12-18T19:04:44;84.55;;;37.92;;
57071;SDS011;42956;51.366;11.298;2022-12-18T19:07:13;83.93;;;36.78;;
57071;SDS011;42956;51.366;11.298;2022-12-18T19:09:56;77.22;;;36.40;;
57071;SDS011;42956;51.366;11.298;2022-12-18T19:12:31;81.40;;;38.78;;
57071;SDS011;42956;51.366;11.298;2022-12-18T19:15:17;90.05;;;43.20;;
57071;SDS011;42956;51.366;11.298;2022-12-18T19:17:45;116.13;;;56.83;;
57071;SDS011;42956;51.366;11.298;2022-12-18T19:20:15;138.80;;;61.33;;
57071;SDS011;42956;51.366;11.298;2022-12-18T19:22:43;134.50;;;61.35;;
57071;SDS011;42956;51.366;11.298;2022-12-18T19:25:21;115.50;;;50.90;;
57071;SDS011;42956;51.366;11.298;2022-12-18T19:28:05;100.03;;;48.47;;
57071;SDS011;42956;51.366;11.298;2022-12-18T19:30:48;103.10;;;47.53;;
57071;SDS011;42956;51.366;11.298;2022-12-18T19:33:21;102.88;;;44.60;;
57071;SDS011;42956;51.366;11.298;2022-12-18T19:36:14;97.18;;;46.90;;
57071;SDS011;42956;51.366;11.298;2022-12-18T19:38:42;78.53;;;38.10;;
57071;SDS011;42956;51.366;11.298;2022-12-18T19:41:11;79.97;;;38.53;;
57071;SDS011;42956;51.366;11.298;2022-12-18T19:43:40;66.07;;;33.17;;
57071;SDS011;42956;51.366;11.298;2022-12-18T19:46:09;68.95;;;32.67;;
57071;SDS011;42956;51.366;11.298;2022-12-18T19:48:38;60.47;;;29.23;;
57071;SDS011;42956;51.366;11.298;2022-12-18T19:51:08;56.72;;;29.42;;
57071;SDS011;42956;51.366;11.298;2022-12-18T19:53:37;54.47;;;27.30;;
57071;SDS011;42956;51.366;11.298;2022-12-18T19:56:05;47.80;;;26.20;;
57071;SDS011;42956;51.366;11.298;2022-12-18T19:58:33;42.08;;;22.05;;
57071;SDS011;42956;51.366;11.298;2022-12-18T20:01:01;48.15;;;20.60;;
57071;SDS011;42956;51.366;11.298;2022-12-18T20:03:32;38.20;;;20.80;;
57071;SDS011;42956;51.366;11.298;2022-12-18T20:06:07;72.97;;;32.30;;
57071;SDS011;42956;51.366;11.298;2022-12-18T20:08:38;80.63;;;34.83;;
57071;SDS011;42956;51.366;11.298;2022-12-18T20:11:07;92.28;;;42.55;;
57071;SDS011;42956;51.366;11.298;2022-12-18T20:13:35;80.28;;;37.25;;
57071;SDS011;42956;51.366;11.298;2022-12-18T20:16:03;75.63;;;34.80;;
57071;SDS011;42956;51.366;11.298;2022-12-18T20:18:32;90.78;;;38.72;;
57071;SDS011;42956;51.366;11.298;2022-12-18T20:21:00;63.15;;;30.60;;
57071;SDS011;42956;51.366;11.298;2022-12-18T20:23:29;79.22;;;35.85;;
57071;SDS011;42956;51.366;11.298;2022-12-18T20:26:04;86.38;;;36.88;;
57071;SDS011;42956;51.366;11.298;2022-12-18T20:28:34;88.22;;;38.03;;
57071;SDS011;42956;51.366;11.298;2022-12-18T20:31:05;84.20;;;35.83;;
57071;SDS011;42956;51.366;11.298;2022-12-18T20:33:36;77.10;;;35.92;;
57071;SDS011;42956;51.366;11.298;2022-12-18T20:36:06;74.78;;;34.38;;
57071;SDS011;42956;51.366;11.298;2022-12-18T20:38:35;67.53;;;31.88;;
57071;SDS011;42956;51.366;11.298;2022-12-18T20:41:07;69.45;;;33.97;;
57071;SDS011;42956;51.366;11.298;2022-12-18T20:43:36;74.13;;;34.33;;
57071;SDS011;42956;51.366;11.298;2022-12-18T20:46:06;71.38;;;35.17;;
57071;SDS011;42956;51.366;11.298;2022-12-18T20:48:34;65.07;;;33.95;;
57071;SDS011;42956;51.366;11.298;2022-12-18T20:51:04;66.70;;;32.50;;
57071;SDS011;42956;51.366;11.298;2022-12-18T20:53:35;57.35;;;30.20;;
57071;SDS011;42956;51.366;11.298;2022-12-18T20:56:09;66.97;;;29.30;;
57071;SDS011;42956;51.366;11.298;2022-12-18T20:58:38;51.42;;;28.00;;
57071;SDS011;42956;51.366;11.298;2022-12-18T21:01:07;65.38;;;33.08;;
57071;SDS011;42956;51.366;11.298;2022-12-18T21:03:38;60.00;;;31.95;;
57071;SDS011;42956;51.366;11.298;2022-12-18T21:06:07;57.45;;;31.20;;
57071;SDS011;42956;51.366;11.298;2022-12-18T21:08:36;63.85;;;31.20;;
57071;SDS011;42956;51.366;11.298;2022-12-18T21:11:12;51.85;;;25.83;;
57071;SDS011;42956;51.366;11.298;2022-12-18T21:14:01;42.15;;;22.17;;
